createdAt,value
2023-03-26T00:01:41.803Z,7.17
2023-03-26T00:03:47.285Z,7.19
2023-03-26T00:05:51.734Z,7.19
2023-03-26T00:07:55.940Z,7.14
2023-03-26T00:09:59.698Z,7.04
2023-03-26T00:12:03.499Z,6.96
2023-03-26T00:14:07.475Z,6.95
2023-03-26T00:16:14.212Z,6.92
2023-03-26T00:18:20.301Z,6.92
2023-03-26T00:20:24.436Z,6.92
2023-03-26T00:22:28.035Z,6.92
2023-03-26T00:24:31.794Z,6.93
2023-03-26T00:26:38.586Z,6.94
2023-03-26T00:28:43.870Z,6.94
2023-03-26T00:30:47.116Z,6.91
2023-03-26T00:32:53.627Z,6.90
2023-03-26T00:34:57.706Z,6.89
2023-03-26T00:37:02.723Z,6.88
2023-03-26T00:39:07.145Z,6.86
2023-03-26T00:41:17.874Z,6.87
2023-03-26T00:43:23.915Z,6.92
2023-03-26T00:45:27.728Z,6.97
2023-03-26T00:47:31.838Z,7.02
2023-03-26T00:49:36.926Z,7.07
2023-03-26T00:51:40.557Z,7.11
2023-03-26T00:53:45.482Z,7.14
2023-03-26T00:55:49.460Z,7.18
2023-03-26T00:57:53.121Z,7.21
2023-03-26T00:59:57.174Z,7.24
2023-03-26T01:02:00.878Z,7.28
2023-03-26T01:04:24.366Z,7.30
2023-03-26T01:06:32.978Z,7.33
2023-03-26T01:08:39.675Z,7.32
2023-03-26T01:10:45.010Z,7.32
2023-03-26T01:12:48.768Z,7.36
2023-03-26T01:14:54.644Z,7.39
2023-03-26T01:16:59.891Z,7.42
2023-03-26T01:19:03.637Z,7.42
2023-03-26T01:21:09.751Z,7.43
2023-03-26T01:23:21.128Z,7.48
2023-03-26T01:25:29.480Z,7.49
2023-03-26T01:27:39.596Z,7.49
2023-03-26T01:29:47.288Z,7.45
2023-03-26T01:32:04.174Z,7.44
2023-03-26T01:34:14.248Z,7.42
2023-03-26T01:36:23.849Z,7.39
2023-03-26T01:38:35.710Z,7.39
2023-03-26T01:40:47.322Z,7.38
2023-03-26T01:43:00.640Z,7.39
2023-03-26T01:45:11.502Z,7.40
2023-03-26T01:47:17.772Z,7.43
2023-03-26T01:49:22.846Z,7.48
2023-03-26T01:51:30.266Z,7.49
2023-03-26T01:53:34.791Z,7.49
2023-03-26T01:55:53.995Z,7.49
2023-03-26T01:58:07.002Z,7.51
2023-03-26T02:00:22.270Z,7.55
2023-03-26T02:02:32.213Z,7.56
2023-03-26T02:04:42.096Z,7.59
2023-03-26T02:06:49.105Z,7.62
2023-03-26T02:08:58.258Z,7.66
2023-03-26T02:11:05.857Z,7.70
2023-03-26T02:13:09.551Z,7.71
2023-03-26T02:15:14.026Z,7.72
2023-03-26T02:17:19.301Z,7.72
2023-03-26T02:19:24.820Z,7.72
2023-03-26T02:21:29.545Z,7.70
2023-03-26T02:23:36.007Z,7.66
2023-03-26T02:25:42.239Z,7.65
2023-03-26T02:27:48.089Z,7.65
2023-03-26T02:29:52.062Z,7.65
2023-03-26T02:31:58.635Z,7.65
2023-03-26T02:34:02.793Z,7.65
2023-03-26T02:36:10.808Z,7.65
2023-03-26T02:38:15.490Z,7.65
2023-03-26T02:40:21.671Z,7.65
2023-03-26T02:42:27.814Z,7.66
2023-03-26T02:44:33.212Z,7.62
2023-03-26T02:46:38.512Z,7.60
2023-03-26T02:48:57.920Z,7.57
2023-03-26T02:51:04.278Z,7.57
2023-03-26T02:53:46.403Z,7.56
2023-03-26T02:56:21.128Z,7.57
2023-03-26T02:58:38.574Z,7.57
2023-03-26T03:00:45.170Z,7.56
2023-03-26T03:03:05.213Z,7.56
2023-03-26T03:05:10.592Z,7.53
2023-03-26T03:07:16.114Z,7.50
2023-03-26T03:09:20.063Z,7.49
2023-03-26T03:11:52.047Z,7.48
2023-03-26T03:13:56.925Z,7.46
2023-03-26T03:16:06.029Z,7.48
2023-03-26T03:18:10.212Z,7.47
2023-03-26T03:20:14.779Z,7.48
2023-03-26T03:22:20.233Z,7.47
2023-03-26T03:24:27.319Z,7.49
2023-03-26T03:26:32.123Z,7.49
2023-03-26T03:28:47.323Z,7.48
2023-03-26T03:30:54.659Z,7.47
2023-03-26T03:33:07.099Z,7.47
2023-03-26T03:35:11.954Z,7.47
2023-03-26T03:37:17.704Z,7.43
2023-03-26T03:39:27.722Z,7.44
2023-03-26T03:41:31.406Z,7.45
2023-03-26T03:43:38.494Z,7.47
2023-03-26T03:45:50.164Z,7.48
2023-03-26T03:48:15.325Z,7.47
2023-03-26T03:50:22.964Z,7.47
2023-03-26T03:52:53.369Z,7.47
2023-03-26T03:55:01.387Z,7.50
2023-03-26T03:57:24.246Z,7.49
2023-03-26T03:59:47.884Z,7.52
2023-03-26T04:01:54.982Z,7.52
2023-03-26T04:04:08.681Z,7.50
2023-03-26T04:06:44.747Z,7.48
2023-03-26T04:08:50.620Z,7.44
2023-03-26T04:10:54.747Z,7.44
2023-03-26T04:13:27.780Z,7.47
2023-03-26T04:15:31.474Z,7.49
2023-03-26T04:17:42.567Z,7.52
2023-03-26T04:19:50.443Z,7.51
2023-03-26T04:21:55.672Z,7.51
2023-03-26T04:24:01.885Z,7.49
2023-03-26T04:26:35.749Z,7.45
2023-03-26T04:28:47.635Z,7.38
2023-03-26T04:31:00.947Z,7.32
2023-03-26T04:33:15.776Z,7.32
2023-03-26T04:35:22.419Z,7.37
2023-03-26T04:37:34.688Z,7.36
2023-03-26T04:39:45.471Z,7.40
2023-03-26T04:42:15.693Z,7.42
2023-03-26T04:44:35.109Z,7.44
2023-03-26T04:46:43.865Z,7.42
2023-03-26T04:49:03.895Z,7.43
2023-03-26T04:51:10.317Z,7.46
2023-03-26T04:53:16.806Z,7.42
2023-03-26T04:55:52.432Z,7.44
2023-03-26T04:58:14.621Z,7.40
2023-03-26T05:00:34.750Z,7.38
2023-03-26T05:02:40.557Z,7.38
2023-03-26T05:04:46.383Z,7.36
2023-03-26T05:06:52.586Z,7.36
2023-03-26T05:09:03.770Z,7.35
2023-03-26T05:11:28.851Z,7.37
2023-03-26T05:13:33.926Z,7.38
2023-03-26T05:15:42.832Z,7.39
2023-03-26T05:17:52.034Z,7.39
2023-03-26T05:20:21.524Z,7.41
2023-03-26T05:22:26.488Z,7.39
2023-03-26T05:24:58.869Z,7.38
2023-03-26T05:27:02.513Z,7.37
2023-03-26T05:29:11.004Z,7.36
2023-03-26T05:31:22.587Z,7.35
2023-03-26T05:33:30.111Z,7.33
2023-03-26T05:35:38.221Z,7.30
2023-03-26T05:37:46.280Z,7.29
2023-03-26T05:39:53.324Z,7.33
2023-03-26T05:42:17.445Z,7.33
2023-03-26T05:44:38.936Z,7.33
2023-03-26T05:46:51.735Z,7.31
2023-03-26T05:48:59.480Z,7.28
2023-03-26T05:51:06.742Z,7.28
2023-03-26T05:53:11.918Z,7.26
2023-03-26T05:55:46.793Z,7.27
2023-03-26T05:58:10.600Z,7.27
2023-03-26T06:00:33.927Z,7.27
2023-03-26T06:02:37.778Z,7.27
2023-03-26T06:05:04.813Z,7.26
2023-03-26T06:07:34.272Z,7.24
2023-03-26T06:09:53.509Z,7.25
2023-03-26T06:11:57.347Z,7.26
2023-03-26T06:14:01.321Z,7.22
2023-03-26T06:16:04.710Z,7.23
2023-03-26T06:18:10.922Z,7.21
2023-03-26T06:20:35.929Z,7.20
2023-03-26T06:22:45.512Z,7.17
2023-03-26T06:25:07.486Z,7.09
2023-03-26T06:27:29.374Z,7.05
2023-03-26T06:29:53.055Z,7.02
2023-03-26T06:32:20.158Z,7.01
2023-03-26T06:34:47.301Z,7.01
2023-03-26T06:36:52.749Z,7.00
2023-03-26T06:38:57.654Z,6.99
2023-03-26T06:41:06.001Z,7.00
2023-03-26T06:43:34.090Z,7.00
2023-03-26T06:45:55.902Z,6.98
2023-03-26T06:48:14.270Z,6.95
2023-03-26T06:50:33.303Z,6.91
2023-03-26T06:53:00.220Z,6.92
2023-03-26T06:55:13.125Z,6.93
2023-03-26T06:57:24.179Z,6.97
2023-03-26T07:00:00.017Z,7.04
2023-03-26T07:02:22.206Z,7.05
2023-03-26T07:04:44.130Z,7.07
2023-03-26T07:07:06.292Z,7.08
2023-03-26T07:09:35.990Z,7.11
2023-03-26T07:11:48.270Z,7.17
2023-03-26T07:14:19.033Z,7.20
2023-03-26T07:16:59.466Z,7.18
2023-03-26T07:19:08.488Z,7.16
2023-03-26T07:21:15.200Z,7.14
2023-03-26T07:23:20.797Z,7.16
2023-03-26T07:25:34.016Z,7.18
2023-03-26T07:28:02.029Z,7.21
2023-03-26T07:30:28.884Z,7.21
2023-03-26T07:32:54.536Z,7.20
2023-03-26T07:35:33.765Z,7.22
2023-03-26T07:37:59.420Z,7.19
2023-03-26T07:40:11.194Z,7.20
2023-03-26T07:43:02.502Z,7.20
2023-03-26T07:45:34.068Z,7.19
2023-03-26T07:47:57.169Z,7.15
2023-03-26T07:50:23.787Z,7.09
2023-03-26T07:52:36.360Z,7.11
2023-03-26T07:54:51.842Z,7.11
2023-03-26T07:57:37.889Z,7.17
2023-03-26T08:00:19.128Z,7.14
2023-03-26T08:02:41.570Z,7.09
2023-03-26T08:05:20.367Z,7.03
2023-03-26T08:07:42.637Z,7.06
2023-03-26T08:10:11.699Z,7.15
2023-03-26T08:12:38.481Z,7.09
2023-03-26T08:14:51.663Z,7.06
2023-03-26T08:16:57.628Z,7.06
2023-03-26T08:19:14.015Z,7.06
2023-03-26T08:21:21.634Z,7.02
2023-03-26T08:23:30.957Z,7.04
2023-03-26T08:25:38.208Z,7.05
2023-03-26T08:27:45.385Z,7.07
2023-03-26T08:29:55.783Z,7.05
2023-03-26T08:31:59.604Z,7.05
2023-03-26T08:34:04.916Z,7.02
2023-03-26T08:36:10.327Z,6.99
2023-03-26T08:38:16.013Z,6.93
2023-03-26T08:40:37.292Z,6.92
2023-03-26T08:43:07.523Z,6.93
2023-03-26T08:45:58.629Z,6.95
2023-03-26T08:48:41.439Z,6.93
2023-03-26T08:51:10.822Z,6.95
2023-03-26T08:53:42.724Z,7.01
2023-03-26T08:55:55.103Z,7.04
2023-03-26T08:58:37.229Z,7.04
2023-03-26T09:01:03.406Z,7.06
2023-03-26T09:03:41.674Z,7.02
2023-03-26T09:06:25.939Z,6.94
2023-03-26T09:08:59.240Z,6.85
2023-03-26T09:11:37.210Z,6.73
2023-03-26T09:14:21.864Z,6.69
2023-03-26T09:16:48.103Z,6.76
2023-03-26T09:19:21.593Z,6.81
2023-03-26T09:22:01.419Z,6.86
2023-03-26T09:24:34.643Z,6.91
2023-03-26T09:26:48.701Z,6.96
2023-03-26T09:29:22.747Z,7.00
2023-03-26T09:31:58.224Z,7.07
2023-03-26T09:34:17.286Z,7.05
2023-03-26T09:36:31.511Z,7.04
2023-03-26T09:38:46.236Z,6.99
2023-03-26T09:41:01.354Z,6.95
2023-03-26T09:43:44.418Z,6.89
2023-03-26T09:46:01.905Z,6.86
2023-03-26T09:48:15.306Z,6.85
2023-03-26T09:50:33.717Z,6.81
2023-03-26T09:52:57.407Z,6.77
2023-03-26T09:55:15.656Z,6.76
2023-03-26T09:57:35.076Z,6.70
2023-03-26T10:00:07.570Z,6.66
2023-03-26T10:02:47.571Z,6.70
2023-03-26T10:05:20.370Z,6.65
2023-03-26T10:07:43.184Z,6.66
2023-03-26T10:09:54.932Z,6.70
2023-03-26T10:12:21.421Z,6.78
2023-03-26T10:14:33.735Z,6.92
2023-03-26T10:16:49.600Z,6.97
2023-03-26T10:19:04.493Z,6.93
2023-03-26T10:21:15.954Z,6.85
2023-03-26T10:23:41.077Z,6.81
2023-03-26T10:26:04.566Z,6.71
2023-03-26T10:28:37.187Z,6.65
2023-03-26T10:31:06.250Z,6.62
2023-03-26T10:33:19.725Z,6.67
2023-03-26T10:35:35.194Z,6.74
2023-03-26T10:37:54.625Z,6.76
2023-03-26T10:40:14.408Z,6.81
2023-03-26T10:42:33.259Z,6.88
2023-03-26T10:45:00.614Z,6.85
2023-03-26T10:47:25.606Z,6.81
2023-03-26T10:50:13.038Z,6.88
2023-03-26T10:52:22.786Z,6.94
2023-03-26T10:54:43.050Z,6.97
2023-03-26T10:56:49.767Z,6.94
2023-03-26T10:58:53.924Z,6.86
2023-03-26T11:01:04.782Z,6.87
2023-03-26T11:03:41.788Z,6.93
2023-03-26T11:05:53.047Z,6.87
2023-03-26T11:08:03.837Z,6.89
2023-03-26T11:10:11.509Z,6.93
2023-03-26T11:12:26.222Z,6.84
2023-03-26T11:14:36.734Z,6.73
2023-03-26T11:16:53.802Z,6.71
2023-03-26T11:19:05.172Z,6.81
2023-03-26T11:21:18.960Z,6.85
2023-03-26T11:23:35.294Z,6.83
2023-03-26T11:25:52.124Z,6.84
2023-03-26T11:28:04.086Z,6.87
2023-03-26T11:30:23.573Z,6.88
2023-03-26T11:32:36.729Z,6.79
2023-03-26T11:34:44.406Z,6.77
2023-03-26T11:36:52.733Z,6.82
2023-03-26T11:39:01.291Z,6.82
2023-03-26T11:41:14.565Z,6.82
2023-03-26T11:43:34.086Z,6.82
2023-03-26T11:45:42.668Z,6.81
2023-03-26T11:47:52.032Z,6.85
2023-03-26T11:49:57.423Z,6.85
2023-03-26T11:52:03.315Z,6.83
2023-03-26T11:54:11.416Z,6.80
2023-03-26T11:56:22.542Z,6.81
2023-03-26T11:58:32.505Z,6.78
2023-03-26T12:00:36.237Z,6.76
2023-03-26T12:02:41.829Z,6.78
2023-03-26T12:04:52.106Z,6.85
2023-03-26T12:06:59.875Z,6.84
2023-03-26T12:09:04.837Z,6.91
2023-03-26T12:11:12.424Z,6.95
2023-03-26T12:13:30.651Z,7.08
2023-03-26T12:15:34.650Z,7.20
2023-03-26T12:17:42.609Z,7.32
2023-03-26T12:19:47.908Z,7.41
2023-03-26T12:21:54.021Z,7.43
2023-03-26T12:24:01.369Z,7.44
2023-03-26T12:26:17.572Z,7.45
2023-03-26T12:28:21.710Z,7.41
2023-03-26T12:30:27.677Z,7.36
2023-03-26T12:34:41.960Z,7.36
2023-03-26T12:36:53.212Z,7.33
2023-03-26T12:39:43.201Z,7.38
2023-03-26T12:44:41.738Z,7.49
2023-03-26T12:44:56.159Z,7.59
2023-03-26T12:47:56.896Z,7.68
2023-03-26T12:48:49.532Z,7.59
2023-03-26T12:51:04.422Z,7.59
2023-03-26T12:53:23.846Z,7.63
2023-03-26T12:55:49.536Z,7.70
2023-03-26T12:58:00.936Z,7.76
2023-03-26T13:00:28.985Z,7.75
2023-03-26T13:02:59.379Z,7.69
2023-03-26T13:05:21.017Z,7.73
2023-03-26T13:07:31.758Z,7.75
2023-03-26T13:09:53.389Z,7.72
2023-03-26T13:12:07.423Z,7.66
2023-03-26T13:14:36.164Z,7.69
2023-03-26T13:16:49.368Z,7.76
2023-03-26T13:18:59.805Z,7.84
2023-03-26T13:21:10.332Z,7.85
2023-03-26T13:23:29.661Z,7.90
2023-03-26T13:25:39.315Z,8.00
2023-03-26T13:27:55.038Z,7.83
2023-03-26T13:30:04.567Z,7.81
2023-03-26T13:32:14.131Z,7.88
2023-03-26T13:34:26.833Z,7.96
2023-03-26T13:36:40.090Z,8.07
2023-03-26T13:38:58.767Z,8.04
2023-03-26T13:41:11.304Z,8.06
2023-03-26T13:43:28.539Z,7.97
2023-03-26T13:45:45.451Z,8.03
2023-03-26T13:47:52.558Z,8.10
2023-03-26T13:50:02.104Z,8.20
2023-03-26T13:52:12.595Z,8.32
2023-03-26T13:54:25.106Z,8.37
2023-03-26T13:56:38.706Z,8.38
2023-03-26T13:58:49.104Z,8.33
2023-03-26T14:00:59.654Z,8.25
2023-03-26T14:03:11.177Z,8.20
2023-03-26T14:05:23.315Z,8.25
2023-03-26T14:07:33.568Z,8.27
2023-03-26T14:09:45.968Z,8.23
2023-03-26T14:12:03.532Z,8.36
2023-03-26T14:14:13.104Z,8.45
2023-03-26T14:16:20.679Z,8.48
2023-03-26T14:18:32.796Z,8.52
2023-03-26T14:21:26.254Z,8.62
2023-03-26T14:24:08.472Z,8.67
2023-03-26T14:26:20.921Z,8.70
2023-03-26T14:29:01.711Z,8.58
2023-03-26T14:31:24.589Z,8.51
2023-03-26T14:33:39.750Z,8.56
2023-03-26T14:35:54.647Z,8.55
2023-03-26T14:38:39.854Z,8.45
2023-03-26T14:40:58.746Z,8.34
2023-03-26T14:43:30.741Z,8.27
2023-03-26T14:46:09.835Z,8.34
2023-03-26T14:48:50.513Z,8.43
2023-03-26T14:51:10.333Z,8.46
2023-03-26T14:53:24.950Z,8.45
2023-03-26T14:55:56.849Z,8.42
2023-03-26T14:58:22.399Z,8.43
2023-03-26T15:01:17.921Z,8.45
2023-03-26T15:04:09.135Z,8.37
2023-03-26T15:06:39.593Z,8.21
2023-03-26T15:09:25.317Z,8.19
2023-03-26T15:11:35.733Z,8.16
2023-03-26T15:13:57.511Z,8.07
2023-03-26T15:16:28.185Z,8.14
2023-03-26T15:19:27.562Z,8.17
2023-03-26T15:22:05.130Z,8.08
2023-03-26T15:24:31.011Z,8.01
2023-03-26T15:27:08.503Z,8.02
2023-03-26T15:29:41.294Z,8.18
2023-03-26T15:32:10.255Z,8.32
2023-03-26T15:34:39.777Z,8.31
2023-03-26T15:37:23.246Z,8.11
2023-03-26T15:40:08.047Z,8.00
2023-03-26T15:42:22.108Z,7.96
2023-03-26T15:44:50.904Z,7.94
2023-03-26T15:47:19.082Z,7.97
2023-03-26T15:49:30.246Z,7.97
2023-03-26T15:51:46.980Z,7.91
2023-03-26T15:53:55.478Z,7.86
2023-03-26T15:56:11.944Z,7.90
2023-03-26T15:58:20.431Z,7.90
2023-03-26T16:00:26.432Z,7.78
2023-03-26T16:02:40.380Z,7.73
2023-03-26T16:04:52.001Z,7.73
2023-03-26T16:07:03.327Z,7.74
2023-03-26T16:09:22.248Z,7.74
2023-03-26T16:11:49.851Z,7.75
2023-03-26T16:14:16.957Z,7.65
2023-03-26T16:16:51.769Z,7.65
2023-03-26T16:19:07.527Z,7.63
2023-03-26T16:21:40.577Z,7.47
2023-03-26T16:23:58.027Z,7.38
2023-03-26T16:26:16.704Z,7.38
2023-03-26T16:28:35.229Z,7.36
2023-03-26T16:30:39.642Z,7.34
2023-03-26T16:32:45.603Z,7.35
2023-03-26T16:34:53.108Z,7.29
2023-03-26T16:36:59.863Z,7.28
2023-03-26T16:39:39.947Z,7.25
2023-03-26T16:42:25.115Z,7.20
2023-03-26T16:44:40.250Z,7.20
2023-03-26T16:46:53.505Z,7.29
2023-03-26T16:49:02.643Z,7.27
2023-03-26T16:51:17.340Z,7.24
2023-03-26T16:53:34.533Z,7.25
2023-03-26T16:55:45.141Z,7.21
2023-03-26T16:57:56.325Z,7.20
2023-03-26T17:00:17.959Z,7.19
2023-03-26T17:02:31.672Z,7.18
2023-03-26T17:04:37.195Z,7.12
2023-03-26T17:07:03.593Z,7.13
2023-03-26T17:09:24.874Z,7.15
2023-03-26T17:11:40.178Z,7.13
2023-03-26T17:13:52.868Z,7.13
2023-03-26T17:16:12.152Z,7.17
2023-03-26T17:18:30.586Z,7.18
2023-03-26T17:20:39.930Z,7.18
2023-03-26T17:22:48.338Z,7.14
2023-03-26T17:25:22.224Z,7.10
2023-03-26T17:27:50.224Z,7.08
2023-03-26T17:30:25.221Z,7.08
2023-03-26T17:33:01.744Z,7.11
2023-03-26T17:35:07.810Z,7.11
2023-03-26T17:37:27.332Z,7.10
2023-03-26T17:40:37.289Z,7.10
2023-03-26T17:43:00.999Z,7.07
2023-03-26T17:45:09.567Z,7.07
2023-03-26T17:47:34.053Z,7.06
2023-03-26T17:49:42.480Z,7.05
2023-03-26T17:51:52.410Z,7.03
2023-03-26T17:53:56.369Z,7.01
2023-03-26T17:56:04.069Z,7.03
2023-03-26T17:58:21.835Z,7.01
2023-03-26T18:00:30.633Z,6.99
2023-03-26T18:02:39.738Z,6.94
2023-03-26T18:04:49.043Z,6.91
2023-03-26T18:07:09.341Z,6.91
2023-03-26T18:09:26.371Z,6.92
2023-03-26T18:11:54.591Z,6.93
2023-03-26T18:14:43.194Z,6.93
2023-03-26T18:16:51.590Z,6.93
2023-03-26T18:18:59.330Z,6.93
2023-03-26T18:21:08.124Z,6.95
2023-03-26T18:23:15.324Z,6.95
2023-03-26T18:25:25.415Z,6.96
2023-03-26T18:27:39.106Z,6.97
2023-03-26T18:29:47.754Z,6.96
2023-03-26T18:32:00.823Z,6.97
2023-03-26T18:34:15.461Z,6.95
2023-03-26T18:36:21.924Z,6.96
2023-03-26T18:38:35.266Z,6.98
2023-03-26T18:40:44.437Z,6.99
2023-03-26T18:42:52.301Z,6.94
2023-03-26T18:45:00.881Z,6.94
2023-03-26T18:47:09.986Z,6.89
2023-03-26T18:49:16.239Z,6.86
2023-03-26T18:51:23.385Z,6.78
2023-03-26T18:53:31.095Z,6.72
2023-03-26T18:55:39.770Z,6.72
2023-03-26T18:57:44.210Z,6.74
2023-03-26T18:59:51.435Z,6.77
2023-03-26T19:01:57.435Z,6.77
2023-03-26T19:04:04.212Z,6.76
2023-03-26T19:06:10.496Z,6.76
2023-03-26T19:08:18.597Z,6.75
2023-03-26T19:10:23.861Z,6.76
2023-03-26T19:12:33.201Z,6.78
2023-03-26T19:14:54.985Z,6.79
2023-03-26T19:17:02.203Z,6.79
2023-03-26T19:19:08.192Z,6.78
2023-03-26T19:21:12.037Z,6.77
2023-03-26T19:23:20.011Z,6.77
2023-03-26T19:25:26.965Z,6.75
2023-03-26T19:27:30.795Z,6.77
2023-03-26T19:29:36.688Z,6.77
2023-03-26T19:31:40.661Z,6.78
2023-03-26T19:33:45.896Z,6.80
2023-03-26T19:35:56.713Z,6.81
2023-03-26T19:38:00.527Z,6.80
2023-03-26T19:40:16.050Z,6.80
2023-03-26T19:42:23.346Z,6.76
2023-03-26T19:44:29.105Z,6.70
2023-03-26T19:46:53.879Z,6.64
2023-03-26T19:48:59.245Z,6.59
2023-03-26T19:51:05.612Z,6.53
2023-03-26T19:53:19.077Z,6.50
2023-03-26T19:55:25.400Z,6.48
2023-03-26T19:57:31.160Z,6.45
2023-03-26T19:59:34.853Z,6.43
2023-03-26T20:01:38.871Z,6.41
2023-03-26T20:03:44.488Z,6.37
2023-03-26T20:05:48.310Z,6.33
2023-03-26T20:07:51.958Z,6.28
2023-03-26T20:09:56.319Z,6.22
2023-03-26T20:12:01.679Z,6.19
2023-03-26T20:14:14.224Z,6.15
2023-03-26T20:16:23.600Z,6.13
2023-03-26T20:18:27.756Z,6.10
2023-03-26T20:20:31.406Z,6.10
2023-03-26T20:22:35.024Z,6.07
2023-03-26T20:24:38.709Z,6.06
2023-03-26T20:26:42.418Z,6.07
2023-03-26T20:28:52.724Z,6.09
2023-03-26T20:30:57.196Z,6.09
2023-03-26T20:33:12.752Z,6.09
2023-03-26T20:35:19.573Z,6.05
2023-03-26T20:37:41.007Z,6.05
2023-03-26T20:39:45.785Z,6.06
2023-03-26T20:41:51.468Z,6.05
2023-03-26T20:43:56.388Z,6.06
2023-03-26T20:46:00.968Z,6.05
2023-03-26T20:48:04.816Z,6.02
2023-03-26T20:50:12.882Z,5.98
2023-03-26T20:52:18.966Z,5.94
2023-03-26T20:54:24.752Z,5.90
2023-03-26T20:56:29.331Z,5.87
2023-03-26T20:58:33.396Z,5.85
2023-03-26T21:00:38.435Z,5.82
2023-03-26T21:02:43.335Z,5.79
2023-03-26T21:04:48.350Z,5.73
2023-03-26T21:06:55.360Z,5.68
2023-03-26T21:09:05.383Z,5.64
2023-03-26T21:11:26.500Z,5.60
2023-03-26T21:13:38.168Z,5.55
2023-03-26T21:15:43.871Z,5.51
2023-03-26T21:17:48.143Z,5.46
2023-03-26T21:19:52.462Z,5.41
2023-03-26T21:22:04.890Z,5.34
2023-03-26T21:24:19.077Z,5.28
2023-03-26T21:26:30.665Z,5.24
2023-03-26T21:28:42.384Z,5.19
2023-03-26T21:30:48.930Z,5.15
2023-03-26T21:32:52.995Z,5.12
2023-03-26T21:34:59.633Z,5.09
2023-03-26T21:37:04.043Z,5.06
2023-03-26T21:39:08.537Z,5.03
2023-03-26T21:41:26.497Z,4.98
2023-03-26T21:43:30.466Z,4.94
2023-03-26T21:45:34.610Z,4.89
2023-03-26T21:47:41.556Z,4.86
2023-03-26T21:49:46.371Z,4.83
2023-03-26T21:51:50.831Z,4.83
2023-03-26T21:53:55.272Z,4.80
2023-03-26T21:56:06.677Z,4.77
2023-03-26T21:58:33.894Z,4.71
2023-03-26T22:00:44.479Z,4.69
2023-03-26T22:03:07.648Z,4.64
2023-03-26T22:05:16.211Z,4.59
2023-03-26T22:07:22.779Z,4.58
2023-03-26T22:09:35.769Z,4.56
2023-03-26T22:11:40.962Z,4.54
2023-03-26T22:13:44.496Z,4.52
2023-03-26T22:15:48.077Z,4.50
2023-03-26T22:17:54.368Z,4.47
2023-03-26T22:20:01.339Z,4.47
2023-03-26T22:22:05.484Z,4.48
2023-03-26T22:24:09.507Z,4.48
2023-03-26T22:26:13.283Z,4.46
2023-03-26T22:28:16.964Z,4.44
2023-03-26T22:30:22.078Z,4.42
2023-03-26T22:32:25.620Z,4.38
2023-03-26T22:34:36.516Z,4.34
2023-03-26T22:36:41.480Z,4.30
2023-03-26T22:38:45.313Z,4.26
2023-03-26T22:40:56.943Z,4.22
2023-03-26T22:43:00.872Z,4.21
2023-03-26T22:45:05.696Z,4.17
2023-03-26T22:47:09.600Z,4.16
2023-03-26T22:49:13.359Z,4.16
2023-03-26T22:51:17.809Z,4.15
2023-03-26T22:53:23.926Z,4.12
2023-03-26T22:55:29.812Z,4.08
2023-03-26T22:57:34.071Z,4.03
2023-03-26T22:59:37.602Z,3.98
2023-03-26T23:01:41.641Z,3.94
2023-03-26T23:03:46.114Z,3.93
2023-03-26T23:05:59.727Z,3.88
2023-03-26T23:08:08.921Z,3.86
2023-03-26T23:10:23.344Z,3.84
2023-03-26T23:12:35.580Z,3.82
2023-03-26T23:14:39.508Z,3.82
2023-03-26T23:16:45.876Z,3.84
2023-03-26T23:18:49.664Z,3.84
2023-03-26T23:20:55.641Z,3.82
2023-03-26T23:22:59.446Z,3.80
2023-03-26T23:25:03.447Z,3.77
2023-03-26T23:27:09.093Z,3.74
2023-03-26T23:29:14.145Z,3.75
2023-03-26T23:31:17.818Z,3.75
2023-03-26T23:33:22.864Z,3.74
2023-03-26T23:35:26.688Z,3.73
2023-03-26T23:37:35.312Z,3.71
2023-03-26T23:39:39.228Z,3.65
2023-03-26T23:41:42.840Z,3.61
2023-03-26T23:43:53.546Z,3.59
2023-03-26T23:45:59.711Z,3.60
2023-03-26T23:48:03.674Z,3.58
2023-03-26T23:50:09.933Z,3.55
2023-03-26T23:52:13.862Z,3.51
2023-03-26T23:54:17.517Z,3.49
2023-03-26T23:56:21.335Z,3.47
2023-03-26T23:58:26.648Z,3.45
